Terminal Aerodrome Forecast
Issued by NWS Lake Charles, LA

Home | Current Version | Previous Version | Text Only | Print | Product List | Glossary On
Versions: 1 2 3 4 5 6 7 8 9 10 11 12 13 14 15
000
FTUS44 KLCH 260535
TAFARA
TAF
KARA 260535Z 2606/2706 02003KT P6SM FEW006 BKN200
      TEMPO 2608/2610 4SM BR
     FM261400 05005KT P6SM FEW015
     FM261900 07007KT P6SM VCTS FEW025CB SCT035
     FM270000 05003KT P6SM FEW050 BKN150=

USA.gov is the U.S. government's official web portal to all federal, state and local government web resources and services.